createdAt,value
2017-08-28T00:04:51.756Z,49.6
2017-08-28T00:15:07.040Z,48.9
2017-08-28T00:25:23.794Z,48.8
2017-08-28T00:35:39.423Z,48.9
2017-08-28T00:45:54.861Z,49.0
2017-08-28T00:56:10.873Z,48.7
2017-08-28T01:06:27.008Z,49.0
2017-08-28T01:16:42.405Z,48.7
2017-08-28T01:26:58.682Z,48.7
2017-08-28T01:37:14.804Z,48.8
2017-08-28T01:48:01.486Z,48.4
2017-08-28T01:58:17.818Z,48.4
2017-08-28T02:08:34.202Z,48.2
2017-08-28T02:19:01.324Z,48.2
2017-08-28T02:29:17.577Z,48.4
2017-08-28T02:39:33.709Z,48.1
2017-08-28T02:50:19.716Z,48.7
2017-08-28T03:00:35.786Z,47.9
2017-08-28T03:10:51.278Z,47.9
2017-08-28T03:21:07.307Z,47.6
2017-08-28T03:31:23.427Z,47.7
2017-08-28T03:41:39.944Z,47.2
2017-08-28T03:51:56.118Z,47.1
2017-08-28T04:02:12.373Z,47.1
2017-08-28T04:12:28.553Z,47.2
2017-08-28T04:22:44.802Z,47.4
2017-08-28T04:33:00.642Z,47.5
2017-08-28T04:43:16.130Z,47.3
2017-08-28T04:53:32.223Z,47.3
2017-08-28T05:03:48.596Z,47.5
2017-08-28T05:14:04.623Z,47.7
2017-08-28T05:24:20.437Z,48.2
2017-08-28T05:34:36.400Z,48.7
2017-08-28T05:44:52.551Z,48.7
2017-08-28T05:55:08.767Z,48.6
2017-08-28T06:05:25.415Z,49.1
2017-08-28T06:15:43.994Z,49.2
2017-08-28T06:26:00.188Z,49.6
2017-08-28T06:36:16.386Z,49.5
2017-08-28T06:46:32.692Z,50.1
2017-08-28T06:57:19.414Z,50.6
2017-08-28T07:07:35.729Z,50.8
2017-08-28T07:17:51.976Z,50.7
2017-08-28T07:28:08.184Z,51.1
2017-08-28T07:38:24.293Z,51.6
2017-08-28T07:48:48.725Z,51.1
2017-08-28T07:59:06.142Z,48.7
2017-08-28T08:09:52.591Z,46.3
2017-08-28T08:20:08.908Z,44.1
2017-08-28T08:30:25.026Z,42.9
2017-08-28T08:40:44.550Z,41.8
2017-08-28T08:51:05.003Z,41.2
2017-08-28T09:01:20.889Z,40.1
2017-08-28T09:11:38.675Z,38.9
2017-08-28T09:21:57.165Z,38.1
2017-08-28T09:32:13.799Z,37.2
2017-08-28T09:43:03.395Z,36.3
2017-08-28T09:53:19.601Z,35.7
2017-08-28T10:03:35.898Z,35.2
2017-08-28T10:13:53.110Z,34.2
2017-08-28T10:24:09.496Z,33.8
2017-08-28T10:34:25.763Z,32.7
2017-08-28T10:44:42.166Z,32.1
2017-08-28T10:54:58.221Z,26.3
2017-08-28T11:05:15.703Z,28.2
2017-08-28T11:15:32.041Z,28.7
2017-08-28T11:26:20.815Z,29.2
2017-08-28T11:37:07.291Z,29.3
2017-08-28T11:47:24.006Z,29.0
2017-08-28T11:57:40.710Z,29.3
2017-08-28T12:07:57.202Z,28.9
2017-08-28T12:18:56.764Z,28.6
2017-08-28T12:29:13.270Z,25.9
2017-08-28T12:40:00.955Z,27.9
2017-08-28T12:50:58.473Z,29.0
2017-08-28T13:01:32.644Z,30.6
2017-08-28T13:11:52.950Z,33.5
2017-08-28T13:22:48.035Z,33.7
2017-08-28T13:33:04.076Z,33.3
2017-08-28T13:43:20.404Z,35.6
2017-08-28T13:53:36.423Z,36.0
2017-08-28T14:03:52.766Z,34.5
2017-08-28T14:14:09.157Z,36.1
2017-08-28T14:24:25.365Z,36.4
2017-08-28T14:34:41.501Z,36.6
2017-08-28T14:44:57.675Z,35.7
2017-08-28T14:55:13.849Z,35.6
2017-08-28T15:05:30.041Z,35.5
2017-08-28T15:15:46.442Z,35.5
2017-08-28T15:26:02.549Z,35.4
2017-08-28T15:36:18.842Z,35.2
2017-08-28T15:46:36.319Z,34.8
2017-08-28T15:56:53.264Z,35.2
2017-08-28T16:07:09.449Z,35.5
2017-08-28T16:17:25.776Z,35.9
2017-08-28T16:27:43.095Z,36.3
2017-08-28T16:38:29.772Z,36.3
2017-08-28T16:48:45.937Z,36.8
2017-08-28T16:59:02.280Z,37.6
2017-08-28T17:09:18.260Z,38.1
2017-08-28T17:19:37.009Z,38.4
2017-08-28T17:29:52.889Z,39.2
2017-08-28T17:40:09.321Z,39.8
2017-08-28T17:50:25.261Z,40.1
2017-08-28T18:00:41.442Z,40.5
2017-08-28T18:10:57.732Z,41.0
2017-08-28T18:21:14.030Z,41.7
2017-08-28T18:31:30.109Z,42.4
2017-08-28T18:41:43.387Z,43.1
2017-08-28T18:52:29.970Z,43.3
2017-08-28T19:02:46.291Z,43.5
2017-08-28T19:13:02.890Z,43.9
2017-08-28T19:23:18.671Z,44.3
2017-08-28T19:33:34.857Z,44.3
2017-08-28T19:43:51.023Z,44.8
2017-08-28T19:54:07.621Z,45.1
2017-08-28T20:04:23.718Z,45.2
2017-08-28T20:14:39.966Z,45.4
2017-08-28T20:24:55.930Z,45.5
2017-08-28T20:35:11.861Z,45.7
2017-08-28T20:45:28.293Z,45.9
2017-08-28T20:56:16.017Z,46.1
2017-08-28T21:06:32.524Z,46.0
2017-08-28T21:16:48.370Z,46.1
2017-08-28T21:27:04.660Z,46.5
